createdAt,value
2022-09-06T00:01:54.368Z,50.58
2022-09-06T00:04:27.040Z,50.77
2022-09-06T00:06:59.328Z,50.79
2022-09-06T00:09:31.926Z,50.94
2022-09-06T00:12:04.925Z,50.79
2022-09-06T00:14:37.198Z,51.03
2022-09-06T00:17:09.344Z,51.11
2022-09-06T00:19:41.430Z,50.72
2022-09-06T00:22:13.885Z,51.14
2022-09-06T00:24:45.948Z,50.85
2022-09-06T00:27:18.143Z,51.06
2022-09-06T00:29:50.707Z,51.33
2022-09-06T00:32:22.837Z,51.43
2022-09-06T00:34:54.934Z,51.35
2022-09-06T00:37:27.209Z,51.35
2022-09-06T00:39:59.270Z,51.94
2022-09-06T00:42:31.551Z,51.71
2022-09-06T00:45:04.198Z,51.93
2022-09-06T00:47:38.900Z,52.11
2022-09-06T00:50:14.600Z,51.86
2022-09-06T00:52:50.118Z,51.92
2022-09-06T00:55:24.170Z,51.95
2022-09-06T00:57:56.879Z,52.31
2022-09-06T01:00:29.268Z,52.14
2022-09-06T01:03:01.997Z,52.24
2022-09-06T01:05:43.703Z,51.64
2022-09-06T01:08:27.860Z,51.81
2022-09-06T01:11:20.930Z,52.04
2022-09-06T01:14:11.346Z,51.93
2022-09-06T01:16:50.316Z,52.08
2022-09-06T01:19:56.132Z,51.83
2022-09-06T01:22:49.570Z,52.03
2022-09-06T01:25:41.896Z,52.11
2022-09-06T01:28:28.955Z,51.95
2022-09-06T01:31:10.603Z,52.18
2022-09-06T01:33:50.035Z,52.34
2022-09-06T01:36:28.297Z,52.23
2022-09-06T01:39:00.382Z,52.38
2022-09-06T01:41:33.284Z,52.28
2022-09-06T01:44:06.128Z,52.36
2022-09-06T01:46:46.194Z,52.52
2022-09-06T01:49:31.767Z,52.28
2022-09-06T01:52:15.531Z,52.42
2022-09-06T01:55:02.379Z,52.41
2022-09-06T01:57:50.059Z,52.52
2022-09-06T02:00:23.880Z,52.81
2022-09-06T02:03:07.436Z,52.79
2022-09-06T02:05:44.737Z,52.60
2022-09-06T02:08:23.578Z,52.54
2022-09-06T02:11:00.575Z,52.83
2022-09-06T02:13:39.155Z,52.84
2022-09-06T02:16:15.425Z,52.85
2022-09-06T02:18:53.618Z,52.77
2022-09-06T02:21:32.426Z,53.36
2022-09-06T02:24:07.805Z,53.10
2022-09-06T02:26:44.832Z,53.13
2022-09-06T02:29:18.425Z,52.87
2022-09-06T02:31:55.009Z,52.66
2022-09-06T02:34:29.179Z,52.97
2022-09-06T02:37:02.935Z,53.16
2022-09-06T02:39:35.472Z,53.18
2022-09-06T02:42:10.463Z,53.24
2022-09-06T02:44:42.755Z,53.46
2022-09-06T02:47:15.648Z,53.40
2022-09-06T02:49:48.055Z,53.42
2022-09-06T02:52:20.440Z,53.26
2022-09-06T02:54:53.116Z,53.71
2022-09-06T02:57:25.441Z,53.27
2022-09-06T02:59:58.151Z,54.03
2022-09-06T03:02:30.342Z,53.70
2022-09-06T03:05:03.119Z,53.77
2022-09-06T03:07:35.242Z,53.71
2022-09-06T03:10:08.425Z,53.65
2022-09-06T03:12:40.705Z,53.97
2022-09-06T03:15:14.307Z,53.98
2022-09-06T03:17:47.132Z,53.61
2022-09-06T03:20:19.895Z,53.78
2022-09-06T03:22:52.347Z,54.39
2022-09-06T03:25:25.687Z,54.27
2022-09-06T03:28:00.075Z,54.14
2022-09-06T03:30:32.568Z,54.29
2022-09-06T03:33:04.668Z,54.60
2022-09-06T03:35:36.607Z,54.50
2022-09-06T03:38:08.850Z,54.58
2022-09-06T03:40:45.317Z,54.63
2022-09-06T03:43:18.968Z,55.15
2022-09-06T03:45:52.484Z,54.97
2022-09-06T03:48:27.625Z,54.74
2022-09-06T03:51:01.226Z,54.94
2022-09-06T03:53:34.216Z,55.33
2022-09-06T03:56:07.023Z,55.20
2022-09-06T03:58:39.052Z,55.05
2022-09-06T04:01:13.131Z,55.06
2022-09-06T04:03:44.861Z,55.22
2022-09-06T04:06:17.281Z,55.20
2022-09-06T04:08:49.537Z,55.19
2022-09-06T04:11:24.923Z,55.35
2022-09-06T04:13:57.633Z,55.19
2022-09-06T04:16:30.066Z,55.14
2022-09-06T04:19:04.272Z,55.34
2022-09-06T04:21:36.885Z,55.53
2022-09-06T04:24:08.938Z,55.58
2022-09-06T04:26:42.172Z,55.66
2022-09-06T04:29:14.232Z,55.78
2022-09-06T04:31:46.922Z,55.69
2022-09-06T04:34:21.198Z,55.55
2022-09-06T04:36:53.559Z,55.59
2022-09-06T04:39:26.944Z,55.85
2022-09-06T04:41:58.960Z,56.25
2022-09-06T04:44:31.308Z,56.49
2022-09-06T04:47:09.928Z,56.46
2022-09-06T04:49:42.015Z,56.57
2022-09-06T04:52:14.811Z,56.44
2022-09-06T04:54:47.241Z,56.60
2022-09-06T04:57:22.440Z,56.54
2022-09-06T04:59:55.028Z,56.87
2022-09-06T05:02:27.457Z,56.81
2022-09-06T05:04:59.507Z,56.80
2022-09-06T05:07:31.499Z,57.14
2022-09-06T05:10:06.244Z,57.47
2022-09-06T05:12:42.165Z,57.95
2022-09-06T05:15:17.193Z,57.94
2022-09-06T05:17:50.332Z,57.88
2022-09-06T05:20:22.633Z,57.61
2022-09-06T05:22:57.654Z,58.25
2022-09-06T05:25:29.812Z,57.73
2022-09-06T05:28:01.858Z,57.93
2022-09-06T05:30:33.875Z,57.88
2022-09-06T05:33:06.591Z,57.67
2022-09-06T05:35:38.666Z,58.05
2022-09-06T05:38:10.782Z,57.58
2022-09-06T05:40:42.973Z,57.50
2022-09-06T05:43:14.919Z,57.16
2022-09-06T05:45:47.347Z,57.34
2022-09-06T05:48:23.084Z,57.11
2022-09-06T05:51:03.816Z,56.92
2022-09-06T05:53:38.638Z,57.09
2022-09-06T05:56:12.088Z,56.82
2022-09-06T05:58:44.113Z,57.04
2022-09-06T06:01:21.388Z,56.90
2022-09-06T06:03:55.459Z,56.88
2022-09-06T06:06:29.427Z,56.98
2022-09-06T06:09:02.278Z,57.03
2022-09-06T06:11:34.409Z,56.94
2022-09-06T06:14:07.133Z,56.87
2022-09-06T06:16:39.771Z,57.23
2022-09-06T06:19:12.026Z,56.96
2022-09-06T06:21:44.955Z,56.99
2022-09-06T06:24:16.990Z,56.84
2022-09-06T06:26:49.149Z,56.20
2022-09-06T06:29:21.108Z,57.14
2022-09-06T06:31:53.445Z,56.78
2022-09-06T06:34:25.846Z,56.32
2022-09-06T06:36:59.835Z,56.55
2022-09-06T06:39:31.830Z,56.38
2022-09-06T06:42:03.858Z,56.44
2022-09-06T06:44:54.508Z,56.08
2022-09-06T06:47:26.860Z,56.33
2022-09-06T06:49:59.243Z,56.40
2022-09-06T06:52:31.276Z,56.32
2022-09-06T06:55:03.474Z,56.06
2022-09-06T06:57:35.654Z,56.10
2022-09-06T07:00:11.460Z,55.79
2022-09-06T07:02:44.034Z,55.76
2022-09-06T07:08:09.072Z,55.39
2022-09-06T07:10:41.257Z,55.52
2022-09-06T07:13:14.157Z,55.51
2022-09-06T07:15:46.155Z,55.53
2022-09-06T07:18:20.017Z,55.15
2022-09-06T07:26:38.898Z,54.97
2022-09-06T07:29:12.089Z,54.87
2022-09-06T07:34:37.838Z,53.92
2022-09-06T07:37:10.242Z,54.03
2022-09-06T07:39:42.428Z,53.84
2022-09-06T07:42:16.322Z,54.07
2022-09-06T07:44:48.598Z,53.84
2022-09-06T07:53:11.196Z,53.16
2022-09-06T07:55:47.625Z,52.85
2022-09-06T07:58:19.860Z,52.47
2022-09-06T08:00:51.918Z,52.80
2022-09-06T08:03:24.042Z,52.67
2022-09-06T08:06:11.682Z,52.15
2022-09-06T08:09:00.047Z,52.05
2022-09-06T08:11:34.688Z,52.00
2022-09-06T08:14:08.711Z,51.48
2022-09-06T08:16:40.962Z,51.08
2022-09-06T08:19:13.013Z,51.56
2022-09-06T08:21:45.249Z,51.35
2022-09-06T08:24:17.590Z,51.04
2022-09-06T08:26:49.901Z,50.46
2022-09-06T08:29:21.878Z,50.37
2022-09-06T08:31:53.943Z,50.05
2022-09-06T08:34:26.129Z,50.64
2022-09-06T08:36:58.508Z,50.05
2022-09-06T08:39:30.935Z,49.75
2022-09-06T08:42:06.359Z,49.46
2022-09-06T08:44:58.453Z,48.89
2022-09-06T08:47:31.713Z,48.40
2022-09-06T08:50:08.044Z,48.48
2022-09-06T08:53:16.044Z,48.17
2022-09-06T08:55:54.332Z,47.66
2022-09-06T08:58:38.553Z,46.85
2022-09-06T09:01:16.101Z,47.54
2022-09-06T09:03:48.520Z,45.71
2022-09-06T09:06:21.977Z,46.49
2022-09-06T09:09:04.156Z,46.63
2022-09-06T09:11:38.033Z,45.90
2022-09-06T09:14:17.039Z,44.32
2022-09-06T09:16:52.946Z,44.15
2022-09-06T09:19:25.271Z,44.04
2022-09-06T09:21:57.524Z,43.90
2022-09-06T09:24:31.515Z,44.55
2022-09-06T09:27:08.694Z,44.41
2022-09-06T09:32:53.197Z,43.08
2022-09-06T09:35:32.043Z,43.32
2022-09-06T09:38:11.667Z,40.83
2022-09-06T09:40:51.855Z,40.75
2022-09-06T09:43:26.314Z,40.39
2022-09-06T09:46:13.224Z,40.18
2022-09-06T09:49:02.009Z,40.11
2022-09-06T09:51:35.836Z,39.45
2022-09-06T09:54:10.778Z,40.00
2022-09-06T09:56:47.671Z,40.25
2022-09-06T09:59:23.182Z,40.02
2022-09-06T10:02:00.126Z,39.04
2022-09-06T10:04:45.264Z,37.82
2022-09-06T10:07:20.546Z,38.27
2022-09-06T10:09:58.226Z,38.74
2022-09-06T10:12:34.998Z,38.26
2022-09-06T10:15:09.908Z,38.46
2022-09-06T10:17:52.442Z,38.16
2022-09-06T10:20:27.444Z,38.31
2022-09-06T10:23:08.196Z,38.06
2022-09-06T10:25:49.785Z,37.60
2022-09-06T10:28:32.885Z,38.08
2022-09-06T10:31:31.937Z,36.31
2022-09-06T10:34:17.354Z,36.71
2022-09-06T10:37:00.546Z,36.78
2022-09-06T10:39:44.985Z,37.33
2022-09-06T10:42:29.781Z,35.44
2022-09-06T10:45:16.696Z,35.30
2022-09-06T10:48:03.139Z,35.56
2022-09-06T10:50:44.243Z,34.85
2022-09-06T10:53:32.378Z,36.17
2022-09-06T10:56:12.082Z,35.93
2022-09-06T11:01:54.562Z,35.41
2022-09-06T11:04:33.479Z,34.65
2022-09-06T11:07:12.157Z,34.03
2022-09-06T11:09:48.647Z,33.99
2022-09-06T11:12:36.643Z,33.78
2022-09-06T11:15:12.982Z,34.89
2022-09-06T11:17:49.216Z,35.93
2022-09-06T11:20:31.245Z,35.74
2022-09-06T11:23:34.404Z,34.76
2022-09-06T11:26:37.085Z,35.06
2022-09-06T11:29:17.707Z,33.50
2022-09-06T11:34:55.745Z,33.46
2022-09-06T11:37:32.802Z,32.96
2022-09-06T11:40:29.897Z,34.49
2022-09-06T11:43:18.132Z,33.61
2022-09-06T11:45:53.246Z,33.27
2022-09-06T11:49:03.959Z,33.87
2022-09-06T11:51:41.065Z,33.73
2022-09-06T11:54:27.039Z,33.34
2022-09-06T11:57:03.673Z,33.48
2022-09-06T11:59:49.539Z,34.61
2022-09-06T12:02:47.697Z,35.15
2022-09-06T12:05:26.817Z,34.49
2022-09-06T12:08:24.702Z,34.61
2022-09-06T12:11:06.273Z,35.31
2022-09-06T12:13:54.299Z,35.67
2022-09-06T12:16:46.912Z,35.71
2022-09-06T12:19:44.709Z,36.25
2022-09-06T12:23:04.271Z,35.95
2022-09-06T12:25:58.629Z,34.58
2022-09-06T12:28:51.458Z,34.06
2022-09-06T12:31:30.502Z,34.32
2022-09-06T12:34:09.777Z,34.90
2022-09-06T12:36:56.876Z,34.93
2022-09-06T12:39:29.553Z,35.29
2022-09-06T12:42:05.352Z,34.28
2022-09-06T12:44:42.989Z,34.40
2022-09-06T12:47:23.080Z,35.14
2022-09-06T12:52:56.403Z,35.07
2022-09-06T12:55:32.745Z,35.66
2022-09-06T12:58:07.044Z,36.87
2022-09-06T13:00:42.232Z,36.23
2022-09-06T13:03:27.165Z,35.88
2022-09-06T13:06:05.485Z,35.66
2022-09-06T13:08:52.710Z,35.85
2022-09-06T13:11:32.678Z,35.54
2022-09-06T13:14:14.418Z,35.23
2022-09-06T13:16:50.936Z,35.58
2022-09-06T13:19:34.212Z,35.94
2022-09-06T13:22:11.155Z,36.22
2022-09-06T13:24:47.905Z,35.96
2022-09-06T13:27:34.232Z,36.20
2022-09-06T13:30:09.690Z,35.65
2022-09-06T13:32:49.599Z,35.32
2022-09-06T13:35:28.664Z,36.03
2022-09-06T13:38:31.821Z,35.98
2022-09-06T13:41:15.786Z,36.73
2022-09-06T13:43:49.294Z,36.16
2022-09-06T13:46:21.413Z,36.67
2022-09-06T13:49:00.323Z,37.75
2022-09-06T13:51:34.100Z,37.66
2022-09-06T13:54:11.738Z,36.36
2022-09-06T13:56:45.063Z,36.31
2022-09-06T13:59:18.282Z,36.61
2022-09-06T14:01:56.072Z,37.35
2022-09-06T14:04:28.368Z,36.45
2022-09-06T14:07:01.579Z,36.20
2022-09-06T14:09:33.915Z,37.02
2022-09-06T14:12:07.622Z,37.25
2022-09-06T14:14:40.350Z,36.25
2022-09-06T14:17:12.525Z,36.37
2022-09-06T14:19:44.860Z,36.50
2022-09-06T14:22:17.108Z,35.78
2022-09-06T14:24:49.898Z,36.90
2022-09-06T14:27:22.081Z,40.09
2022-09-06T14:29:54.330Z,37.12
2022-09-06T14:32:26.877Z,37.02
2022-09-06T14:34:58.975Z,36.74
2022-09-06T14:37:31.176Z,36.79
2022-09-06T14:40:04.089Z,37.38
2022-09-06T14:42:36.461Z,37.58
2022-09-06T14:45:11.973Z,37.09
2022-09-06T14:47:44.554Z,36.22
2022-09-06T14:50:17.098Z,37.64
2022-09-06T14:52:50.911Z,37.82
2022-09-06T14:55:23.289Z,36.99
2022-09-06T14:57:55.375Z,38.03
2022-09-06T15:00:27.933Z,38.73
2022-09-06T15:03:00.755Z,38.02
2022-09-06T15:05:32.913Z,37.72
2022-09-06T15:08:05.976Z,37.64
2022-09-06T15:10:38.675Z,37.45
2022-09-06T15:13:10.849Z,37.12
2022-09-06T15:15:43.069Z,36.49
2022-09-06T15:18:15.359Z,37.18
2022-09-06T15:20:47.711Z,39.97
2022-09-06T15:23:27.579Z,38.32
2022-09-06T15:25:59.682Z,36.72
2022-09-06T15:28:31.902Z,36.82
2022-09-06T15:31:04.663Z,36.80
2022-09-06T15:33:38.459Z,36.96
2022-09-06T15:36:11.837Z,37.82
2022-09-06T15:38:47.646Z,37.83
2022-09-06T15:41:22.267Z,37.77
2022-09-06T15:43:57.822Z,38.37
2022-09-06T15:46:45.237Z,39.94
2022-09-06T15:49:23.305Z,37.83
2022-09-06T15:51:58.348Z,38.30
2022-09-06T15:54:48.607Z,37.62
2022-09-06T15:57:21.304Z,38.90
2022-09-06T15:59:53.862Z,39.69
2022-09-06T16:02:27.221Z,38.84
2022-09-06T16:04:59.618Z,39.28
2022-09-06T16:07:31.758Z,40.48
2022-09-06T16:10:04.809Z,39.12
2022-09-06T16:12:37.458Z,38.54
2022-09-06T16:15:11.332Z,39.10
2022-09-06T16:17:43.583Z,39.29
2022-09-06T16:20:16.135Z,39.14
2022-09-06T16:22:49.974Z,40.76
2022-09-06T16:25:22.536Z,41.86
2022-09-06T16:27:55.014Z,41.88
2022-09-06T16:30:28.004Z,42.43
2022-09-06T16:33:00.508Z,42.47
2022-09-06T16:35:33.023Z,42.93
2022-09-06T16:38:08.948Z,43.32
2022-09-06T16:40:46.944Z,42.35
2022-09-06T16:43:19.587Z,42.99
2022-09-06T16:46:00.301Z,43.35
2022-09-06T16:48:34.232Z,43.75
2022-09-06T16:51:16.987Z,43.47
2022-09-06T16:53:50.277Z,43.99
2022-09-06T16:56:24.493Z,43.40
2022-09-06T16:58:58.198Z,42.94
2022-09-06T17:01:32.436Z,43.77
2022-09-06T17:04:04.175Z,42.71
2022-09-06T17:06:44.535Z,43.47
2022-09-06T17:09:20.229Z,43.28
2022-09-06T17:11:52.841Z,44.67
2022-09-06T17:14:25.181Z,44.48
2022-09-06T17:17:14.417Z,44.97
2022-09-06T17:19:47.225Z,44.25
2022-09-06T17:22:20.837Z,44.42
2022-09-06T17:24:53.039Z,44.30
2022-09-06T17:27:25.563Z,44.31
2022-09-06T17:29:57.911Z,44.92
2022-09-06T17:32:31.876Z,44.55
2022-09-06T17:35:04.921Z,44.37
2022-09-06T17:37:37.563Z,44.29
2022-09-06T17:40:12.270Z,44.63
2022-09-06T17:42:45.008Z,45.32
2022-09-06T17:45:17.218Z,45.24
2022-09-06T17:47:49.528Z,44.49
2022-09-06T17:50:22.411Z,44.58
2022-09-06T17:52:54.977Z,44.77
2022-09-06T17:55:29.407Z,44.90
2022-09-06T17:58:02.177Z,46.10
2022-09-06T18:00:34.498Z,45.86
2022-09-06T18:03:07.065Z,46.86
2022-09-06T18:05:41.216Z,46.21
2022-09-06T18:08:13.689Z,46.32
2022-09-06T18:10:46.138Z,46.54
2022-09-06T18:13:18.458Z,46.61
2022-09-06T18:15:51.186Z,46.39
2022-09-06T18:18:23.798Z,47.17
2022-09-06T18:20:56.476Z,48.22
2022-09-06T18:23:29.892Z,48.53
2022-09-06T18:26:04.732Z,48.27
2022-09-06T18:28:39.746Z,48.54
2022-09-06T18:31:13.554Z,48.45
2022-09-06T18:33:46.292Z,47.99
2022-09-06T18:36:19.879Z,48.40
2022-09-06T18:38:52.040Z,47.91
2022-09-06T18:41:50.214Z,47.84
2022-09-06T18:44:22.604Z,48.88
2022-09-06T18:46:55.964Z,48.39
2022-09-06T18:49:28.221Z,49.00
2022-09-06T18:52:00.546Z,48.71
2022-09-06T18:54:33.619Z,49.14
2022-09-06T18:57:06.121Z,48.81
2022-09-06T18:59:38.302Z,48.43
2022-09-06T19:02:10.457Z,48.41
2022-09-06T19:04:42.883Z,48.59
2022-09-06T19:07:15.272Z,48.26
2022-09-06T19:09:47.664Z,48.12
2022-09-06T19:12:19.823Z,47.32
2022-09-06T19:14:52.691Z,47.30
2022-09-06T19:17:24.881Z,47.44
2022-09-06T19:19:57.665Z,47.31
2022-09-06T19:22:30.008Z,47.47
2022-09-06T19:25:02.484Z,47.56
2022-09-06T19:27:35.290Z,47.88
2022-09-06T19:30:09.508Z,47.71
2022-09-06T19:32:41.854Z,47.83
2022-09-06T19:35:14.249Z,47.66
2022-09-06T19:37:47.244Z,47.92
2022-09-06T19:40:19.805Z,47.71
2022-09-06T19:42:52.269Z,47.83
2022-09-06T19:45:24.761Z,47.62
2022-09-06T19:47:57.495Z,47.82
2022-09-06T19:50:29.899Z,48.15
2022-09-06T19:53:06.595Z,47.94
2022-09-06T19:55:39.688Z,48.41
2022-09-06T19:58:11.922Z,48.31
2022-09-06T20:00:45.477Z,48.12
2022-09-06T20:03:18.069Z,48.31
2022-09-06T20:05:57.052Z,48.33
2022-09-06T20:08:30.133Z,48.78
2022-09-06T20:11:04.440Z,48.62
2022-09-06T20:13:38.486Z,48.60
2022-09-06T20:16:12.641Z,48.45
2022-09-06T20:18:45.317Z,48.11
2022-09-06T20:21:19.095Z,48.92
2022-09-06T20:23:53.701Z,48.62
2022-09-06T20:26:28.166Z,48.90
2022-09-06T20:29:01.935Z,48.95
2022-09-06T20:31:35.225Z,48.74
2022-09-06T20:34:12.525Z,49.05
2022-09-06T20:36:49.748Z,49.25
2022-09-06T20:39:22.136Z,49.43
2022-09-06T20:41:54.872Z,49.28
2022-09-06T20:44:27.476Z,49.38
2022-09-06T20:47:01.215Z,48.95
2022-09-06T20:49:33.702Z,49.39
2022-09-06T20:52:07.627Z,49.04
2022-09-06T20:54:41.320Z,49.19
2022-09-06T20:57:20.005Z,48.92
2022-09-06T20:59:54.765Z,48.88
2022-09-06T21:02:27.181Z,49.66
2022-09-06T21:05:00.163Z,49.08
2022-09-06T21:07:32.466Z,48.72
2022-09-06T21:10:05.375Z,49.10
2022-09-06T21:12:37.551Z,49.00
2022-09-06T21:15:11.378Z,48.97
2022-09-06T21:17:44.769Z,49.01
2022-09-06T21:20:17.388Z,48.76
2022-09-06T21:22:49.507Z,49.39
2022-09-06T21:25:21.875Z,49.10
2022-09-06T21:27:55.877Z,48.95
2022-09-06T21:30:28.672Z,49.11
2022-09-06T21:33:00.702Z,49.18
2022-09-06T21:35:35.307Z,49.03
2022-09-06T21:38:07.805Z,48.83
2022-09-06T21:40:40.179Z,48.89
2022-09-06T21:43:12.214Z,49.06
2022-09-06T21:45:44.339Z,48.56
2022-09-06T21:48:18.519Z,48.51
2022-09-06T21:50:51.228Z,48.69
2022-09-06T21:53:26.727Z,48.58
2022-09-06T21:56:04.690Z,48.64
2022-09-06T21:58:37.048Z,48.92
2022-09-06T22:01:09.765Z,48.53
2022-09-06T22:03:42.139Z,48.68
2022-09-06T22:06:16.131Z,48.86
2022-09-06T22:08:48.895Z,49.04
2022-09-06T22:11:23.594Z,49.05
2022-09-06T22:13:58.614Z,48.93
2022-09-06T22:16:30.301Z,49.00
2022-09-06T22:19:03.745Z,48.83
2022-09-06T22:21:36.379Z,48.85
2022-09-06T22:24:10.548Z,49.23
2022-09-06T22:26:43.817Z,49.04
2022-09-06T22:29:16.689Z,49.02
2022-09-06T22:31:49.266Z,49.39
2022-09-06T22:34:21.844Z,49.12
2022-09-06T22:36:54.801Z,49.36
2022-09-06T22:39:27.264Z,49.52
2022-09-06T22:42:01.424Z,49.60
2022-09-06T22:44:33.742Z,49.57
2022-09-06T22:47:06.189Z,49.36
2022-09-06T22:49:39.198Z,49.23
2022-09-06T22:52:12.818Z,49.66
2022-09-06T22:54:45.188Z,49.68
2022-09-06T22:57:17.487Z,49.70
2022-09-06T22:59:49.528Z,49.64
2022-09-06T23:02:21.679Z,50.01
2022-09-06T23:04:54.962Z,49.87
2022-09-06T23:07:27.536Z,50.03
2022-09-06T23:09:59.692Z,49.99
2022-09-06T23:12:32.595Z,49.88
2022-09-06T23:15:05.586Z,50.28
2022-09-06T23:17:37.685Z,50.21
2022-09-06T23:20:11.179Z,50.39
2022-09-06T23:22:43.331Z,50.37
2022-09-06T23:25:16.063Z,50.67
2022-09-06T23:27:48.585Z,50.72
2022-09-06T23:30:20.919Z,50.66
2022-09-06T23:32:53.397Z,50.56
2022-09-06T23:35:26.025Z,50.88
2022-09-06T23:37:58.971Z,50.81
2022-09-06T23:40:31.442Z,50.62
2022-09-06T23:43:04.358Z,50.80
2022-09-06T23:45:36.623Z,51.01
2022-09-06T23:48:09.082Z,51.08
2022-09-06T23:50:41.428Z,51.18
2022-09-06T23:53:14.747Z,51.00
2022-09-06T23:55:47.152Z,51.06
2022-09-06T23:58:19.801Z,51.02
